createdAt,value
2023-01-02T00:00:55.222Z,3.52
2023-01-02T00:01:55.516Z,3.50
2023-01-02T00:02:55.297Z,3.57
2023-01-02T00:03:55.362Z,3.51
2023-01-02T00:04:55.171Z,3.55
2023-01-02T00:05:55.170Z,3.65
2023-01-02T00:06:55.143Z,3.55
2023-01-02T00:07:55.098Z,3.54
2023-01-02T00:08:55.089Z,3.55
2023-01-02T00:09:55.132Z,3.55
2023-01-02T00:10:55.106Z,3.55
2023-01-02T00:11:55.071Z,3.45
2023-01-02T00:12:55.080Z,3.48
2023-01-02T00:13:55.055Z,3.47
2023-01-02T00:14:55.035Z,3.47
2023-01-02T00:15:55.097Z,3.43
2023-01-02T00:16:55.001Z,3.48
2023-01-02T00:17:54.980Z,3.32
2023-01-02T00:18:55.016Z,3.42
2023-01-02T00:19:54.957Z,3.42
2023-01-02T00:20:54.968Z,3.43
2023-01-02T00:21:54.967Z,3.35
2023-01-02T00:22:54.927Z,3.39
2023-01-02T00:23:54.914Z,3.42
2023-01-02T00:24:54.928Z,3.43
2023-01-02T00:25:54.900Z,3.33
2023-01-02T00:26:54.917Z,3.39
2023-01-02T00:27:54.923Z,3.43
2023-01-02T00:28:54.908Z,3.35
2023-01-02T00:29:54.845Z,3.39
2023-01-02T00:30:54.912Z,3.43
2023-01-02T00:31:54.850Z,3.43
2023-01-02T00:32:54.831Z,3.35
2023-01-02T00:33:54.857Z,3.42
2023-01-02T00:34:54.852Z,3.40
2023-01-02T00:35:54.805Z,3.35
2023-01-02T00:36:54.768Z,3.43
2023-01-02T00:37:54.777Z,3.31
2023-01-02T00:38:54.791Z,3.42
2023-01-02T00:39:54.778Z,3.29
2023-01-02T00:40:54.723Z,3.36
2023-01-02T00:41:54.741Z,3.39
2023-01-02T00:42:54.755Z,3.28
2023-01-02T00:43:54.752Z,3.32
2023-01-02T00:44:54.680Z,3.24
2023-01-02T00:45:54.664Z,3.26
2023-01-02T00:46:54.724Z,3.18
2023-01-02T00:47:54.772Z,3.20
2023-01-02T00:48:54.644Z,3.14
2023-01-02T00:49:54.639Z,3.10
2023-01-02T00:50:54.612Z,3.06
2023-01-02T00:51:54.602Z,3.03
2023-01-02T00:52:54.594Z,2.92
2023-01-02T00:53:54.609Z,2.87
2023-01-02T00:54:54.586Z,2.82
2023-01-02T00:55:54.565Z,2.87
2023-01-02T00:56:54.544Z,2.85
2023-01-02T00:57:54.531Z,2.87
2023-01-02T00:58:54.541Z,2.90
2023-01-02T00:59:54.555Z,2.92
2023-01-02T01:00:54.579Z,2.95
2023-01-02T01:01:54.588Z,2.90
2023-01-02T01:03:03.520Z,2.92
2023-01-02T01:03:54.988Z,2.93
2023-01-02T01:04:54.460Z,2.95
2023-01-02T01:05:54.458Z,2.89
2023-01-02T01:06:54.448Z,2.97
2023-01-02T01:07:54.445Z,2.92
2023-01-02T01:08:54.431Z,2.93
2023-01-02T01:09:54.407Z,2.92
2023-01-02T01:10:54.420Z,2.92
2023-01-02T01:11:54.419Z,2.95
2023-01-02T01:12:54.401Z,2.90
2023-01-02T01:13:54.395Z,2.95
2023-01-02T01:14:54.343Z,2.97
2023-01-02T01:15:54.444Z,2.95
2023-01-02T01:16:54.324Z,2.89
2023-01-02T01:17:54.367Z,2.96
2023-01-02T01:18:54.301Z,2.97
2023-01-02T01:19:54.287Z,2.99
2023-01-02T01:20:54.276Z,2.89
2023-01-02T01:21:54.262Z,2.93
2023-01-02T01:22:54.303Z,2.95
2023-01-02T01:23:54.313Z,2.93
2023-01-02T01:24:54.230Z,2.97
2023-01-02T01:25:54.263Z,2.97
2023-01-02T01:26:54.208Z,2.90
2023-01-02T01:27:54.200Z,2.95
2023-01-02T01:28:54.224Z,2.93
2023-01-02T01:29:54.202Z,2.93
2023-01-02T01:30:54.166Z,2.89
2023-01-02T01:31:54.245Z,2.89
2023-01-02T01:32:54.180Z,2.93
2023-01-02T01:33:54.478Z,2.99
2023-01-02T01:34:54.178Z,2.89
2023-01-02T01:35:54.110Z,2.96
2023-01-02T01:36:54.096Z,3.00
2023-01-02T01:37:54.091Z,2.97
2023-01-02T01:38:54.088Z,2.93
2023-01-02T01:39:56.864Z,3.02
2023-01-02T01:40:54.086Z,2.93
2023-01-02T01:41:54.063Z,2.93
2023-01-02T01:43:00.573Z,2.85
2023-01-02T01:43:55.055Z,2.90
2023-01-02T01:44:54.007Z,2.93
2023-01-02T01:45:54.063Z,2.89
2023-01-02T01:46:53.988Z,2.93
2023-01-02T01:47:53.990Z,2.87
2023-01-02T01:48:53.962Z,2.82
2023-01-02T01:49:53.979Z,2.87
2023-01-02T01:50:53.964Z,2.84
2023-01-02T01:51:53.957Z,2.84
2023-01-02T01:52:53.920Z,2.81
2023-01-02T01:53:53.904Z,2.78
2023-01-02T01:54:53.965Z,2.85
2023-01-02T01:55:53.926Z,2.79
2023-01-02T01:56:53.884Z,2.72
2023-01-02T01:57:53.927Z,2.72
2023-01-02T01:58:53.853Z,2.67
2023-01-02T01:59:53.863Z,2.67
2023-01-02T02:00:53.927Z,2.66
2023-01-02T02:01:54.072Z,2.72
2023-01-02T02:02:53.996Z,2.72
2023-01-02T02:03:53.822Z,2.74
2023-01-02T02:04:53.788Z,2.66
2023-01-02T02:05:53.798Z,2.74
2023-01-02T02:06:53.786Z,2.74
2023-01-02T02:07:53.756Z,2.74
2023-01-02T02:08:53.782Z,2.69
2023-01-02T02:09:53.773Z,2.69
2023-01-02T02:10:53.717Z,2.67
2023-01-02T02:11:53.727Z,2.64
2023-01-02T02:12:53.743Z,2.61
2023-01-02T02:13:53.696Z,2.69
2023-01-02T02:14:53.703Z,2.78
2023-01-02T02:15:53.663Z,2.74
2023-01-02T02:16:53.678Z,2.81
2023-01-02T02:17:53.657Z,2.81
2023-01-02T02:18:53.667Z,2.79
2023-01-02T02:19:53.658Z,2.72
2023-01-02T02:20:53.628Z,2.78
2023-01-02T02:21:53.598Z,2.74
2023-01-02T02:22:53.583Z,2.84
2023-01-02T02:23:53.600Z,2.85
2023-01-02T02:24:53.600Z,2.85
2023-01-02T02:25:53.583Z,2.74
2023-01-02T02:26:53.546Z,2.67
2023-01-02T02:27:53.583Z,2.64
2023-01-02T02:28:53.515Z,2.64
2023-01-02T02:29:53.503Z,2.75
2023-01-02T02:30:53.505Z,2.75
2023-01-02T02:31:53.529Z,2.69
2023-01-02T02:32:53.523Z,2.72
2023-01-02T02:33:53.468Z,2.75
2023-01-02T02:34:53.472Z,2.59
2023-01-02T02:35:53.459Z,2.71
2023-01-02T02:36:53.462Z,2.71
2023-01-02T02:37:53.457Z,2.71
2023-01-02T02:38:53.467Z,2.63
2023-01-02T02:39:53.399Z,2.59
2023-01-02T02:40:53.385Z,2.52
2023-01-02T02:41:53.399Z,2.59
2023-01-02T02:42:53.385Z,2.59
2023-01-02T02:43:53.394Z,2.69
2023-01-02T02:44:53.340Z,2.67
2023-01-02T02:45:53.393Z,2.71
2023-01-02T02:46:53.356Z,2.57
2023-01-02T02:47:53.313Z,2.59
2023-01-02T02:48:53.350Z,2.59
2023-01-02T02:49:53.291Z,2.59
2023-01-02T02:50:53.298Z,2.52
2023-01-02T02:51:53.292Z,2.56
2023-01-02T02:52:53.250Z,2.53
2023-01-02T02:53:53.260Z,2.48
2023-01-02T02:54:53.255Z,2.57
2023-01-02T02:55:53.270Z,2.54
2023-01-02T02:56:53.206Z,2.61
2023-01-02T02:57:53.205Z,2.60
2023-01-02T02:58:53.185Z,2.53
2023-01-02T02:59:53.199Z,2.56
2023-01-02T03:00:53.245Z,2.43
2023-01-02T03:01:53.479Z,2.43
2023-01-02T03:02:53.259Z,2.46
2023-01-02T03:03:53.131Z,2.61
2023-01-02T03:04:53.133Z,2.53
2023-01-02T03:05:53.145Z,2.56
2023-01-02T03:06:53.142Z,2.45
2023-01-02T03:07:53.097Z,2.41
2023-01-02T03:08:53.088Z,2.42
2023-01-02T03:09:53.090Z,2.46
2023-01-02T03:10:53.071Z,2.49
2023-01-02T03:11:53.095Z,2.56
2023-01-02T03:12:53.049Z,2.59
2023-01-02T03:13:53.015Z,2.61
2023-01-02T03:14:53.004Z,2.57
2023-01-02T03:15:53.035Z,2.60
2023-01-02T03:16:53.020Z,2.56
2023-01-02T03:17:53.004Z,2.54
2023-01-02T03:18:53.011Z,2.61
2023-01-02T03:19:52.949Z,2.60
2023-01-02T03:20:52.936Z,2.63
2023-01-02T03:21:52.936Z,2.61
2023-01-02T03:22:52.948Z,2.59
2023-01-02T03:23:52.974Z,2.64
2023-01-02T03:24:52.889Z,2.67
2023-01-02T03:25:52.960Z,2.67
2023-01-02T03:26:52.892Z,2.69
2023-01-02T03:27:52.916Z,2.71
2023-01-02T03:28:52.887Z,2.71
2023-01-02T03:29:52.891Z,2.57
2023-01-02T03:30:52.897Z,2.61
2023-01-02T03:31:52.850Z,2.61
2023-01-02T03:32:52.843Z,2.54
2023-01-02T03:33:52.850Z,2.60
2023-01-02T03:34:52.841Z,2.66
2023-01-02T03:35:52.783Z,2.56
2023-01-02T03:36:52.789Z,2.54
2023-01-02T03:37:52.773Z,2.57
2023-01-02T03:38:52.782Z,2.46
2023-01-02T03:39:52.761Z,2.53
2023-01-02T03:40:52.772Z,2.53
2023-01-02T03:41:52.705Z,2.54
2023-01-02T03:42:52.715Z,2.54
2023-01-02T03:43:56.809Z,2.45
2023-01-02T03:44:52.715Z,2.48
2023-01-02T03:45:52.755Z,2.41
2023-01-02T03:46:52.652Z,2.36
2023-01-02T03:47:52.644Z,2.43
2023-01-02T03:48:52.668Z,2.39
2023-01-02T03:49:52.640Z,2.45
2023-01-02T03:50:52.703Z,2.27
2023-01-02T03:51:52.634Z,2.35
2023-01-02T03:52:52.592Z,2.30
2023-01-02T03:53:52.569Z,2.30
2023-01-02T03:54:52.557Z,2.30
2023-01-02T03:55:52.583Z,2.36
2023-01-02T03:56:52.599Z,2.36
2023-01-02T03:57:57.231Z,2.28
2023-01-02T03:58:53.535Z,2.18
2023-01-02T03:59:52.523Z,2.25
2023-01-02T04:00:52.497Z,2.24
2023-01-02T04:01:52.684Z,2.28
2023-01-02T04:02:52.542Z,2.18
2023-01-02T04:03:52.513Z,2.20
2023-01-02T04:04:52.450Z,2.16
2023-01-02T04:05:52.442Z,2.16
2023-01-02T04:06:52.455Z,2.02
2023-01-02T04:07:52.444Z,2.03
2023-01-02T04:08:52.448Z,2.02
2023-01-02T04:09:52.409Z,1.98
2023-01-02T04:10:57.983Z,1.99
2023-01-02T04:11:53.448Z,2.00
2023-01-02T04:12:52.379Z,2.07
2023-01-02T04:13:52.376Z,1.99
2023-01-02T04:14:52.375Z,2.05
2023-01-02T04:15:52.341Z,2.12
2023-01-02T04:16:52.315Z,2.17
2023-01-02T04:17:52.337Z,2.16
2023-01-02T04:18:52.311Z,2.14
2023-01-02T04:19:52.305Z,2.12
2023-01-02T04:20:52.272Z,2.18
2023-01-02T04:21:52.331Z,2.16
2023-01-02T04:22:52.273Z,2.00
2023-01-02T04:23:52.270Z,2.06
2023-01-02T04:24:52.251Z,2.17
2023-01-02T04:25:52.250Z,2.18
2023-01-02T04:26:52.249Z,2.18
2023-01-02T04:27:52.212Z,2.05
2023-01-02T04:28:52.180Z,2.00
2023-01-02T04:29:52.180Z,2.02
2023-01-02T04:30:52.266Z,2.03
2023-01-02T04:31:52.147Z,2.12
2023-01-02T04:32:52.130Z,1.91
2023-01-02T04:33:52.133Z,2.02
2023-01-02T04:34:52.146Z,2.06
2023-01-02T04:35:52.122Z,2.00
2023-01-02T04:36:52.126Z,2.06
2023-01-02T04:37:52.140Z,1.93
2023-01-02T04:38:52.066Z,1.88
2023-01-02T04:39:52.069Z,1.84
2023-01-02T04:40:52.060Z,2.00
2023-01-02T04:41:52.055Z,1.98
2023-01-02T04:42:52.061Z,1.95
2023-01-02T04:43:52.039Z,1.93
2023-01-02T04:44:52.004Z,2.03
2023-01-02T04:45:52.029Z,2.09
2023-01-02T04:46:52.028Z,1.99
2023-01-02T04:47:51.981Z,2.00
2023-01-02T04:48:51.997Z,1.98
2023-01-02T04:49:51.980Z,1.84
2023-01-02T04:50:51.934Z,1.88
2023-01-02T04:51:51.946Z,1.83
2023-01-02T04:52:51.935Z,1.91
2023-01-02T04:53:51.939Z,1.99
2023-01-02T04:54:51.902Z,1.99
2023-01-02T04:55:51.877Z,1.91
2023-01-02T04:56:51.903Z,1.88
2023-01-02T04:57:51.870Z,1.87
2023-01-02T04:58:51.875Z,1.91
2023-01-02T04:59:51.887Z,1.86
2023-01-02T05:00:51.824Z,1.95
2023-01-02T05:01:51.928Z,1.88
2023-01-02T05:02:51.890Z,1.84
2023-01-02T05:03:51.846Z,1.86
2023-01-02T05:04:51.831Z,1.91
2023-01-02T05:05:51.799Z,2.05
2023-01-02T05:06:51.756Z,1.95
2023-01-02T05:07:51.766Z,1.99
2023-01-02T05:08:51.769Z,1.91
2023-01-02T05:09:51.750Z,1.95
2023-01-02T05:10:51.744Z,1.88
2023-01-02T05:11:51.700Z,1.98
2023-01-02T05:12:51.689Z,1.98
2023-01-02T05:13:51.752Z,1.95
2023-01-02T05:14:51.671Z,1.87
2023-01-02T05:15:51.747Z,1.88
2023-01-02T05:16:51.676Z,1.84
2023-01-02T05:17:51.835Z,1.90
2023-01-02T05:18:51.623Z,1.87
2023-01-02T05:19:51.617Z,1.91
2023-01-02T05:20:51.615Z,1.95
2023-01-02T05:21:51.605Z,1.91
2023-01-02T05:22:51.583Z,1.90
2023-01-02T05:23:51.600Z,1.88
2023-01-02T05:24:51.560Z,1.88
2023-01-02T05:25:51.550Z,1.87
2023-01-02T05:26:51.550Z,1.91
2023-01-02T05:27:51.539Z,1.86
2023-01-02T05:28:51.565Z,1.87
2023-01-02T05:29:51.559Z,1.95
2023-01-02T05:30:51.574Z,1.88
2023-01-02T05:31:51.631Z,1.79
2023-01-02T05:32:51.500Z,1.76
2023-01-02T05:33:51.498Z,1.84
2023-01-02T05:34:51.492Z,1.76
2023-01-02T05:35:51.474Z,1.88
2023-01-02T05:36:51.441Z,1.80
2023-01-02T05:37:51.420Z,1.77
2023-01-02T05:38:51.422Z,1.73
2023-01-02T05:39:51.443Z,1.69
2023-01-02T05:40:51.980Z,1.62
2023-01-02T05:41:51.381Z,1.59
2023-01-02T05:42:51.370Z,1.51
2023-01-02T05:43:51.379Z,1.55
2023-01-02T05:44:51.416Z,1.63
2023-01-02T05:45:51.379Z,1.45
2023-01-02T05:46:51.366Z,1.47
2023-01-02T05:47:51.329Z,1.50
2023-01-02T05:48:51.300Z,1.58
2023-01-02T05:49:51.310Z,1.60
2023-01-02T05:50:51.305Z,1.63
2023-01-02T05:51:51.307Z,1.65
2023-01-02T05:52:51.250Z,1.73
2023-01-02T05:53:51.255Z,1.70
2023-01-02T05:54:51.226Z,1.83
2023-01-02T05:55:51.226Z,1.79
2023-01-02T05:56:51.218Z,1.73
2023-01-02T05:57:51.240Z,1.84
2023-01-02T05:58:51.180Z,1.77
2023-01-02T05:59:51.189Z,1.72
2023-01-02T06:00:51.168Z,1.84
2023-01-02T06:01:51.349Z,1.77
2023-01-02T06:02:51.373Z,1.69
2023-01-02T06:03:51.244Z,1.66
2023-01-02T06:04:51.113Z,1.65
2023-01-02T06:05:51.122Z,1.66
2023-01-02T06:06:51.126Z,1.68
2023-01-02T06:07:51.118Z,1.50
2023-01-02T06:08:51.133Z,1.59
2023-01-02T06:09:51.078Z,1.54
2023-01-02T06:10:51.053Z,1.68
2023-01-02T06:11:51.042Z,1.55
2023-01-02T06:12:51.032Z,1.69
2023-01-02T06:13:51.057Z,1.69
2023-01-02T06:14:51.057Z,1.76
2023-01-02T06:15:50.991Z,1.86
2023-01-02T06:16:51.003Z,1.80
2023-01-02T06:17:50.990Z,1.80
2023-01-02T06:18:50.977Z,1.86
2023-01-02T06:19:54.061Z,1.88
2023-01-02T06:20:50.937Z,1.91
2023-01-02T06:21:50.935Z,1.90
2023-01-02T06:22:50.934Z,1.95
2023-01-02T06:23:50.956Z,1.84
2023-01-02T06:24:50.915Z,1.86
2023-01-02T06:25:50.923Z,1.91
2023-01-02T06:26:50.865Z,1.79
2023-01-02T06:27:50.857Z,1.73
2023-01-02T06:28:50.880Z,1.65
2023-01-02T06:29:50.874Z,1.70
2023-01-02T06:30:50.861Z,1.66
2023-01-02T06:31:51.727Z,1.59
2023-01-02T06:32:50.798Z,1.36
2023-01-02T06:33:50.805Z,1.47
2023-01-02T06:34:50.790Z,1.50
2023-01-02T06:35:50.829Z,1.42
2023-01-02T06:36:50.758Z,1.30
2023-01-02T06:37:50.765Z,1.32
2023-01-02T06:38:50.756Z,1.32
2023-01-02T06:39:50.737Z,1.33
2023-01-02T06:40:50.745Z,1.34
2023-01-02T06:41:50.730Z,1.32
2023-01-02T06:42:52.208Z,1.41
2023-01-02T06:43:50.687Z,1.36
2023-01-02T06:44:50.669Z,1.41
2023-01-02T06:45:50.722Z,1.42
2023-01-02T06:46:50.666Z,1.40
2023-01-02T06:47:50.676Z,1.55
2023-01-02T06:48:50.637Z,1.58
2023-01-02T06:49:50.635Z,1.58
2023-01-02T06:50:50.629Z,1.40
2023-01-02T06:51:50.618Z,1.45
2023-01-02T06:52:50.601Z,1.50
2023-01-02T06:53:50.607Z,1.51
2023-01-02T06:54:50.564Z,1.44
2023-01-02T06:55:50.545Z,1.34
2023-01-02T06:56:50.563Z,1.32
2023-01-02T06:57:50.566Z,1.36
2023-01-02T06:58:50.533Z,1.37
2023-01-02T06:59:50.500Z,1.41
2023-01-02T07:00:50.525Z,1.45
2023-01-02T07:01:50.608Z,1.47
2023-01-02T07:02:50.547Z,1.50
2023-01-02T07:03:50.494Z,1.50
2023-01-02T07:04:50.473Z,1.51
2023-01-02T07:05:50.433Z,1.52
2023-01-02T07:06:50.425Z,1.40
2023-01-02T07:07:50.468Z,1.29
2023-01-02T07:08:50.438Z,1.33
2023-01-02T07:09:50.424Z,1.40
2023-01-02T07:10:53.006Z,1.37
2023-01-02T07:11:50.368Z,1.34
2023-01-02T07:12:50.387Z,1.29
2023-01-02T07:13:50.439Z,1.27
2023-01-02T07:14:50.346Z,1.24
2023-01-02T07:15:50.333Z,1.12
2023-01-02T07:16:50.373Z,1.32
2023-01-02T07:17:50.313Z,1.23
2023-01-02T07:18:50.299Z,1.23
2023-01-02T07:19:54.471Z,1.16
2023-01-02T07:20:51.298Z,1.20
2023-01-02T07:21:50.277Z,1.15
2023-01-02T07:22:50.245Z,1.34
2023-01-02T07:23:50.252Z,1.37
2023-01-02T07:24:50.258Z,1.30
2023-01-02T07:25:50.217Z,1.27
2023-01-02T07:26:50.210Z,1.40
2023-01-02T07:27:50.229Z,1.40
2023-01-02T07:28:50.184Z,1.34
2023-01-02T07:29:50.166Z,1.29
2023-01-02T07:30:50.193Z,1.30
2023-01-02T07:31:50.282Z,1.34
2023-01-02T07:32:50.157Z,1.29
2023-01-02T07:33:50.130Z,1.29
2023-01-02T07:34:50.108Z,1.37
2023-01-02T07:35:50.130Z,1.48
2023-01-02T07:36:50.134Z,1.47
2023-01-02T07:37:50.095Z,1.45
2023-01-02T07:38:50.064Z,1.55
2023-01-02T07:39:50.072Z,1.47
2023-01-02T07:40:50.058Z,1.48
2023-01-02T07:41:50.032Z,1.42
2023-01-02T07:42:50.061Z,1.42
2023-01-02T07:43:50.038Z,1.55
2023-01-02T07:44:50.017Z,1.58
2023-01-02T07:45:50.899Z,1.62
2023-01-02T07:46:50.040Z,1.54
2023-01-02T07:47:49.983Z,1.55
2023-01-02T07:48:49.963Z,1.55
2023-01-02T07:49:49.973Z,1.68
2023-01-02T07:50:49.937Z,1.76
2023-01-02T07:51:49.979Z,1.73
2023-01-02T07:52:49.940Z,1.62
2023-01-02T07:53:49.903Z,1.77
2023-01-02T07:54:49.918Z,1.76
2023-01-02T07:55:49.926Z,1.81
2023-01-02T07:56:49.912Z,1.83
2023-01-02T07:57:49.853Z,1.95
2023-01-02T07:58:49.859Z,1.88
2023-01-02T07:59:49.845Z,1.86
2023-01-02T08:00:49.883Z,1.90
2023-01-02T08:01:50.000Z,1.95
2023-01-02T08:02:49.815Z,1.83
2023-01-02T08:03:49.985Z,1.88
2023-01-02T08:04:49.789Z,1.81
2023-01-02T08:05:49.779Z,1.84
2023-01-02T08:06:49.785Z,1.95
2023-01-02T08:07:49.743Z,1.98
2023-01-02T08:08:49.800Z,2.05
2023-01-02T08:09:49.756Z,1.95
2023-01-02T08:10:49.720Z,1.95
2023-01-02T08:11:49.840Z,2.05
2023-01-02T08:12:49.724Z,2.18
2023-01-02T08:13:49.673Z,2.23
2023-01-02T08:14:49.723Z,2.17
2023-01-02T08:15:49.661Z,2.20
2023-01-02T08:16:49.709Z,2.20
2023-01-02T08:17:49.660Z,2.18
2023-01-02T08:18:49.691Z,2.31
2023-01-02T08:19:49.627Z,2.28
2023-01-02T08:20:49.596Z,2.20
2023-01-02T08:21:49.587Z,2.27
2023-01-02T08:22:49.601Z,2.34
2023-01-02T08:23:49.599Z,2.41
2023-01-02T08:24:49.588Z,2.38
2023-01-02T08:25:55.605Z,2.46
2023-01-02T08:26:50.566Z,2.52
2023-01-02T08:27:49.534Z,2.54
2023-01-02T08:28:49.552Z,2.54
2023-01-02T08:29:49.511Z,2.49
2023-01-02T08:30:49.521Z,2.60
2023-01-02T08:31:49.505Z,2.59
2023-01-02T08:32:49.480Z,2.56
2023-01-02T08:33:49.499Z,2.60
2023-01-02T08:34:49.457Z,2.67
2023-01-02T08:35:49.470Z,2.64
2023-01-02T08:36:49.417Z,2.72
2023-01-02T08:37:50.800Z,2.77
2023-01-02T08:38:49.429Z,2.87
2023-01-02T08:39:49.405Z,2.82
2023-01-02T08:40:49.409Z,2.89
2023-01-02T08:41:49.408Z,2.87
2023-01-02T08:42:49.410Z,2.89
2023-01-02T08:43:49.455Z,2.92
2023-01-02T08:44:49.329Z,2.93
2023-01-02T08:45:49.385Z,2.89
2023-01-02T08:46:49.407Z,3.00
2023-01-02T08:47:49.293Z,2.95
2023-01-02T08:48:49.351Z,3.13
2023-01-02T08:49:49.311Z,3.11
2023-01-02T08:50:49.267Z,3.06
2023-01-02T08:51:49.263Z,3.11
2023-01-02T08:52:49.274Z,3.18
2023-01-02T08:53:49.295Z,3.20
2023-01-02T08:54:49.224Z,3.26
2023-01-02T08:55:49.231Z,3.26
2023-01-02T08:56:49.240Z,3.32
2023-01-02T08:57:49.203Z,3.40
2023-01-02T08:58:52.680Z,3.28
2023-01-02T08:59:49.274Z,3.48
2023-01-02T09:00:49.151Z,3.54
2023-01-02T09:01:49.266Z,3.45
2023-01-02T09:02:49.334Z,3.55
2023-01-02T09:03:49.146Z,3.52
2023-01-02T09:04:49.109Z,3.55
2023-01-02T09:05:49.113Z,3.70
2023-01-02T09:06:49.091Z,3.69
2023-01-02T09:07:49.077Z,3.76
2023-01-02T09:08:49.117Z,3.73
2023-01-02T09:09:49.076Z,3.75
2023-01-02T09:10:49.087Z,3.78
2023-01-02T09:11:49.063Z,3.78
2023-01-02T09:12:49.044Z,3.87
2023-01-02T09:13:49.052Z,3.88
2023-01-02T09:14:49.030Z,3.90
2023-01-02T09:15:49.136Z,3.96
2023-01-02T09:16:48.971Z,3.91
2023-01-02T09:17:48.964Z,3.96
2023-01-02T09:18:48.953Z,4.04
2023-01-02T09:19:48.986Z,4.11
2023-01-02T09:20:48.953Z,4.08
2023-01-02T09:21:48.916Z,4.09
2023-01-02T09:22:48.905Z,4.16
2023-01-02T09:23:48.906Z,4.29
2023-01-02T09:24:48.925Z,4.33
2023-01-02T09:25:48.887Z,4.40
2023-01-02T09:26:48.897Z,4.47
2023-01-02T09:27:48.848Z,4.44
2023-01-02T09:28:48.879Z,4.45
2023-01-02T09:29:48.867Z,4.34
2023-01-02T09:30:48.880Z,4.44
2023-01-02T09:31:48.951Z,4.45
2023-01-02T09:32:48.793Z,4.59
2023-01-02T09:33:48.787Z,4.69
2023-01-02T09:34:49.112Z,4.66
2023-01-02T09:35:48.765Z,4.77
2023-01-02T09:36:48.764Z,4.77
2023-01-02T09:37:48.775Z,4.85
2023-01-02T09:38:48.772Z,4.89
2023-01-02T09:39:48.722Z,4.92
2023-01-02T09:40:48.744Z,4.86
2023-01-02T09:41:48.736Z,5.02
2023-01-02T09:42:48.709Z,5.12
2023-01-02T09:43:48.701Z,5.15
2023-01-02T09:44:48.722Z,5.15
2023-01-02T09:45:48.659Z,5.25
2023-01-02T09:46:48.714Z,5.31
2023-01-02T09:47:48.769Z,5.28
2023-01-02T09:48:48.641Z,5.35
2023-01-02T09:49:48.601Z,5.35
2023-01-02T09:50:48.604Z,5.45
2023-01-02T09:51:48.615Z,5.45
2023-01-02T09:52:48.588Z,5.54
2023-01-02T09:53:48.566Z,5.57
2023-01-02T09:54:48.548Z,5.61
2023-01-02T09:55:48.599Z,5.57
2023-01-02T09:56:48.523Z,5.72
2023-01-02T09:57:48.517Z,5.75
2023-01-02T09:58:48.517Z,5.79
2023-01-02T09:59:48.535Z,5.75
2023-01-02T10:00:48.507Z,5.83
2023-01-02T10:01:48.540Z,5.86
2023-01-02T10:02:48.558Z,5.82
2023-01-02T10:03:48.506Z,5.96
2023-01-02T10:04:48.471Z,5.86
2023-01-02T10:05:48.449Z,5.91
2023-01-02T10:06:48.474Z,6.06
2023-01-02T10:07:48.395Z,6.04
2023-01-02T10:08:48.386Z,6.15
2023-01-02T10:09:48.384Z,6.17
2023-01-02T10:10:48.414Z,6.25
2023-01-02T10:11:48.404Z,6.30
2023-01-02T10:12:48.343Z,6.31
2023-01-02T10:14:19.533Z,6.40
2023-01-02T10:14:49.356Z,6.43
2023-01-02T10:15:48.361Z,6.41
2023-01-02T10:16:48.685Z,6.52
2023-01-02T10:17:48.285Z,6.46
2023-01-02T10:18:48.275Z,6.67
2023-01-02T10:19:48.295Z,6.64
2023-01-02T10:20:48.288Z,6.77
2023-01-02T10:21:48.260Z,6.81
2023-01-02T10:22:48.257Z,6.85
2023-01-02T10:23:48.249Z,6.88
2023-01-02T10:24:48.289Z,6.91
2023-01-02T10:25:52.686Z,6.97
2023-01-02T10:26:48.199Z,6.95
2023-01-02T10:27:48.204Z,7.02
2023-01-02T10:28:48.163Z,7.03
2023-01-02T10:29:48.155Z,7.13
2023-01-02T10:30:48.159Z,7.13
2023-01-02T10:31:52.030Z,7.10
2023-01-02T10:32:48.137Z,7.17
2023-01-02T10:33:48.285Z,7.16
2023-01-02T10:34:48.102Z,7.31
2023-01-02T10:35:48.201Z,7.30
2023-01-02T10:36:48.155Z,7.34
2023-01-02T10:37:48.096Z,7.34
2023-01-02T10:38:48.067Z,7.40
2023-01-02T10:39:48.093Z,7.55
2023-01-02T10:40:48.028Z,7.52
2023-01-02T10:41:48.015Z,7.50
2023-01-02T10:42:48.031Z,7.64
2023-01-02T10:43:48.010Z,7.64
2023-01-02T10:44:48.002Z,7.74
2023-01-02T10:45:47.977Z,7.80
2023-01-02T10:46:47.974Z,7.83
2023-01-02T10:47:47.968Z,7.82
2023-01-02T10:48:52.066Z,7.80
2023-01-02T10:49:47.945Z,8.01
2023-01-02T10:50:47.936Z,7.95
2023-01-02T10:51:48.013Z,8.00
2023-01-02T10:52:47.955Z,8.10
2023-01-02T10:53:47.893Z,8.12
2023-01-02T10:54:51.067Z,8.15
2023-01-02T10:55:48.903Z,8.28
2023-01-02T10:56:47.915Z,8.34
2023-01-02T10:57:47.845Z,8.37
2023-01-02T10:58:47.862Z,8.41
2023-01-02T10:59:47.843Z,8.45
2023-01-02T11:00:47.916Z,8.38
2023-01-02T11:01:47.951Z,8.48
2023-01-02T11:02:47.877Z,8.48
2023-01-02T11:03:56.056Z,8.55
2023-01-02T11:04:47.795Z,8.56
2023-01-02T11:05:47.764Z,8.68
2023-01-02T11:06:47.784Z,8.65
2023-01-02T11:07:47.742Z,8.68
2023-01-02T11:08:47.716Z,8.65
2023-01-02T11:09:47.755Z,8.73
2023-01-02T11:10:47.702Z,8.77
2023-01-02T11:11:47.679Z,8.73
2023-01-02T11:12:47.740Z,8.79
2023-01-02T11:13:53.794Z,8.76
2023-01-02T11:14:48.678Z,8.80
2023-01-02T11:15:47.657Z,8.83
2023-01-02T11:16:47.632Z,8.84
2023-01-02T11:17:47.612Z,8.92
2023-01-02T11:18:47.657Z,8.92
2023-01-02T11:19:47.595Z,8.94
2023-01-02T11:20:47.594Z,8.95
2023-01-02T11:21:47.576Z,8.94
2023-01-02T11:22:47.594Z,8.91
2023-01-02T11:23:47.575Z,9.02
2023-01-02T11:24:47.588Z,8.96
2023-01-02T11:25:47.531Z,9.02
2023-01-02T11:26:47.527Z,9.13
2023-01-02T11:27:47.514Z,9.14
2023-01-02T11:28:47.520Z,9.10
2023-01-02T11:29:47.494Z,9.14
2023-01-02T11:30:47.533Z,9.26
2023-01-02T11:31:49.392Z,9.21
2023-01-02T11:32:47.484Z,9.21
2023-01-02T11:33:47.460Z,9.31
2023-01-02T11:34:47.426Z,9.33
2023-01-02T11:35:47.412Z,9.36
2023-01-02T11:36:47.419Z,9.46
2023-01-02T11:37:47.418Z,9.42
2023-01-02T11:38:47.386Z,9.36
2023-01-02T11:39:47.477Z,9.47
2023-01-02T11:40:47.388Z,9.54
2023-01-02T11:41:47.352Z,9.54
2023-01-02T11:42:47.333Z,9.58
2023-01-02T11:43:47.390Z,9.60
2023-01-02T11:44:47.325Z,9.65
2023-01-02T11:45:47.375Z,9.68
2023-01-02T11:46:47.291Z,9.71
2023-01-02T11:47:47.285Z,9.76
2023-01-02T11:48:47.300Z,9.76
2023-01-02T11:49:47.276Z,9.83
2023-01-02T11:50:47.256Z,9.81
2023-01-02T11:51:47.235Z,9.76
2023-01-02T11:52:47.226Z,9.89
2023-01-02T11:53:47.243Z,9.89
2023-01-02T11:54:47.216Z,9.91
2023-01-02T11:55:47.231Z,9.99
2023-01-02T11:56:47.192Z,10.04
2023-01-02T11:57:47.166Z,10.08
2023-01-02T11:58:47.172Z,10.14
2023-01-02T11:59:47.151Z,10.09
2023-01-02T12:00:47.168Z,10.14
2023-01-02T12:01:47.341Z,10.15
2023-01-02T12:02:47.241Z,10.15
2023-01-02T12:03:47.141Z,10.30
2023-01-02T12:04:47.091Z,10.26
2023-01-02T12:05:47.082Z,10.22
2023-01-02T12:06:47.090Z,10.26
2023-01-02T12:07:47.085Z,10.26
2023-01-02T12:08:51.332Z,10.26
2023-01-02T12:09:47.032Z,10.36
2023-01-02T12:10:47.041Z,10.29
2023-01-02T12:11:47.046Z,10.36
2023-01-02T12:12:47.011Z,10.38
2023-01-02T12:13:47.017Z,10.42
2023-01-02T12:14:54.119Z,10.34
2023-01-02T12:15:47.986Z,10.36
2023-01-02T12:16:47.014Z,10.45
2023-01-02T12:17:46.976Z,10.44
2023-01-02T12:18:46.932Z,10.51
2023-01-02T12:19:46.943Z,10.51
2023-01-02T12:20:46.903Z,10.51
2023-01-02T12:21:46.913Z,10.47
2023-01-02T12:22:46.901Z,10.51
2023-01-02T12:23:46.921Z,10.47
2023-01-02T12:24:46.878Z,10.45
2023-01-02T12:25:46.936Z,10.51
2023-01-02T12:26:46.835Z,10.55
2023-01-02T12:27:46.950Z,10.56
2023-01-02T12:28:46.813Z,10.59
2023-01-02T12:29:48.887Z,10.53
2023-01-02T12:30:46.818Z,10.60
2023-01-02T12:31:46.890Z,10.61
2023-01-02T12:32:46.894Z,10.67
2023-01-02T12:33:46.805Z,10.67
2023-01-02T12:34:46.776Z,10.66
2023-01-02T12:35:46.753Z,10.71
2023-01-02T12:36:46.757Z,10.66
2023-01-02T12:37:46.717Z,10.74
2023-01-02T12:38:46.701Z,10.70
2023-01-02T12:39:46.713Z,10.70
2023-01-02T12:40:46.707Z,10.79
2023-01-02T12:42:00.517Z,10.84
2023-01-02T12:42:47.663Z,10.73
2023-01-02T12:43:46.662Z,10.76
2023-01-02T12:44:46.713Z,10.79
2023-01-02T12:45:46.666Z,10.79
2023-01-02T12:46:46.624Z,10.81
2023-01-02T12:47:46.618Z,10.84
2023-01-02T12:48:46.583Z,10.81
2023-01-02T12:49:46.581Z,10.88
2023-01-02T12:50:49.064Z,10.86
2023-01-02T12:51:46.556Z,10.89
2023-01-02T12:52:46.555Z,10.96
2023-01-02T12:53:46.571Z,10.91
2023-01-02T12:54:47.521Z,10.91
2023-01-02T12:55:46.541Z,11.00
2023-01-02T12:56:46.558Z,10.99
2023-01-02T12:57:46.496Z,11.06
2023-01-02T12:58:46.498Z,11.04
2023-01-02T12:59:46.502Z,11.06
2023-01-02T13:00:46.473Z,11.11
2023-01-02T13:01:46.694Z,11.11
2023-01-02T13:02:46.587Z,11.09
2023-01-02T13:03:46.447Z,11.04
2023-01-02T13:04:46.437Z,11.07
2023-01-02T13:05:46.395Z,11.07
2023-01-02T13:06:47.044Z,11.09
2023-01-02T13:07:46.392Z,11.18
2023-01-02T13:08:46.378Z,11.11
2023-01-02T13:09:46.364Z,11.14
2023-01-02T13:10:46.338Z,11.11
2023-01-02T13:11:46.340Z,11.04
2023-01-02T13:12:46.334Z,11.10
2023-01-02T13:13:46.301Z,11.22
2023-01-02T13:14:46.310Z,11.11
2023-01-02T13:15:46.330Z,11.09